createdAt,value
2018-07-21T00:00:09.738Z,15.23
2018-07-21T00:02:40.133Z,18.40
2018-07-21T00:05:10.770Z,17.77
2018-07-21T00:07:41.135Z,18.70
2018-07-21T00:10:11.630Z,15.00
2018-07-21T00:12:42.859Z,17.13
2018-07-21T00:15:13.143Z,16.43
2018-07-21T00:17:43.489Z,19.73
2018-07-21T00:20:13.866Z,19.33
2018-07-21T00:22:44.152Z,17.03
2018-07-21T00:25:15.152Z,21.27
2018-07-21T00:27:45.606Z,18.17
2018-07-21T00:30:16.234Z,14.47
2018-07-21T00:32:46.819Z,18.40
2018-07-21T00:35:17.383Z,21.40
2018-07-21T00:37:47.666Z,17.70
2018-07-21T00:40:18.121Z,15.47
2018-07-21T00:42:48.426Z,17.00
2018-07-21T00:45:18.967Z,16.73
2018-07-21T00:47:49.890Z,16.67
2018-07-21T00:50:20.331Z,19.33
2018-07-21T00:52:50.658Z,17.20
2018-07-21T00:55:20.992Z,20.73
2018-07-21T00:57:51.595Z,20.07
2018-07-21T01:00:21.957Z,17.50
2018-07-21T01:02:52.503Z,17.20
2018-07-21T01:05:22.750Z,18.93
2018-07-21T01:07:53.262Z,17.23
2018-07-21T01:10:23.519Z,16.47
2018-07-21T01:12:54.004Z,22.93
2018-07-21T01:15:24.318Z,16.43
2018-07-21T01:17:54.639Z,17.47
2018-07-21T01:20:25.230Z,19.47
2018-07-21T01:22:55.579Z,16.37
2018-07-21T01:25:25.830Z,19.23
2018-07-21T01:27:56.353Z,19.97
2018-07-21T01:30:26.937Z,21.37
2018-07-21T01:32:57.279Z,19.97
2018-07-21T01:35:27.703Z,15.47
2018-07-21T01:37:58.400Z,18.60
2018-07-21T01:40:28.811Z,19.07
2018-07-21T01:42:59.355Z,16.33
2018-07-21T01:45:29.627Z,18.33
2018-07-21T01:47:59.935Z,21.63
2018-07-21T01:50:30.360Z,22.47
2018-07-21T01:53:00.687Z,17.03
2018-07-21T01:55:31.254Z,18.53
2018-07-21T01:58:01.583Z,17.80
2018-07-21T02:00:31.922Z,17.30
2018-07-21T02:03:02.110Z,18.30
2018-07-21T02:05:33.587Z,16.87
2018-07-21T02:08:03.834Z,16.97
2018-07-21T02:10:35.500Z,18.43
2018-07-21T02:13:05.874Z,21.00
2018-07-21T02:15:36.087Z,18.00
2018-07-21T02:18:06.624Z,22.87
2018-07-21T02:20:36.860Z,17.63
2018-07-21T02:23:07.093Z,17.87
2018-07-21T02:25:37.380Z,18.03
2018-07-21T02:28:07.890Z,16.50
2018-07-21T02:30:38.147Z,20.87
2018-07-21T02:33:08.307Z,17.13
2018-07-21T02:35:39.162Z,17.67
2018-07-21T02:38:10.397Z,17.93
2018-07-21T02:40:40.783Z,20.33
2018-07-21T02:43:11.505Z,17.33
2018-07-21T02:45:41.792Z,17.77
2018-07-21T02:48:12.135Z,19.37
2018-07-21T02:50:42.494Z,19.97
2018-07-21T02:53:12.744Z,20.53
2018-07-21T02:55:42.958Z,21.30
2018-07-21T02:58:13.283Z,20.07
2018-07-21T03:00:43.391Z,21.93
2018-07-21T03:03:13.813Z,23.13
2018-07-21T03:05:43.908Z,23.97
2018-07-21T03:08:14.660Z,20.77
2018-07-21T03:10:44.989Z,21.63
2018-07-21T03:13:15.373Z,19.30
2018-07-21T03:15:45.863Z,23.10
2018-07-21T03:18:16.264Z,20.43
2018-07-21T03:20:46.503Z,21.87
2018-07-21T03:23:16.953Z,21.53
2018-07-21T03:25:47.120Z,21.07
2018-07-21T03:28:17.416Z,19.83
2018-07-21T03:30:47.775Z,20.60
2018-07-21T03:33:18.125Z,20.73
2018-07-21T03:35:48.499Z,24.17
2018-07-21T03:38:18.767Z,18.07
2018-07-21T03:40:49.149Z,18.97
2018-07-21T03:43:19.727Z,61.70
2018-07-21T03:45:50.461Z,43.33
2018-07-21T03:48:20.755Z,18.57
2018-07-21T03:50:50.859Z,20.77
2018-07-21T03:53:21.195Z,20.90
2018-07-21T03:55:51.411Z,16.07
2018-07-21T03:58:21.751Z,18.43
2018-07-21T04:00:52.532Z,45.80
2018-07-21T04:03:22.782Z,20.70
2018-07-21T04:05:53.287Z,17.30
2018-07-21T04:08:23.617Z,14.50
2018-07-21T04:10:54.393Z,15.47
2018-07-21T04:13:24.591Z,13.70
2018-07-21T04:15:55.035Z,15.17
2018-07-21T04:18:25.214Z,14.63
2018-07-21T04:20:55.575Z,24.20
2018-07-21T04:23:25.814Z,14.30
2018-07-21T04:25:56.053Z,14.77
2018-07-21T04:28:26.575Z,19.67
2018-07-21T04:30:57.055Z,16.40
2018-07-21T04:33:27.498Z,17.27
2018-07-21T04:35:57.825Z,14.30
2018-07-21T04:38:28.361Z,16.83
2018-07-21T04:40:58.818Z,16.63
2018-07-21T04:43:29.374Z,14.10
2018-07-21T04:45:59.883Z,15.43
2018-07-21T04:48:30.422Z,12.70
2018-07-21T04:51:00.767Z,12.30
2018-07-21T04:53:31.402Z,16.50
2018-07-21T04:56:01.890Z,14.07
2018-07-21T04:58:32.321Z,16.93
2018-07-21T05:01:02.728Z,21.53
2018-07-21T05:03:33.110Z,15.57
2018-07-21T05:06:03.310Z,27.07
2018-07-21T05:08:34.619Z,20.73
2018-07-21T05:11:05.716Z,14.97
2018-07-21T05:13:36.100Z,17.30
2018-07-21T05:16:06.482Z,22.00
2018-07-21T05:18:36.819Z,17.50
2018-07-21T05:21:07.141Z,16.83
2018-07-21T05:23:37.664Z,17.37
2018-07-21T05:26:07.899Z,16.40
2018-07-21T05:28:38.229Z,16.50
2018-07-21T05:31:08.692Z,16.57
2018-07-21T05:33:39.069Z,12.57
2018-07-21T05:36:09.453Z,20.47
2018-07-21T05:38:39.735Z,19.60
2018-07-21T05:41:10.326Z,17.40
2018-07-21T05:43:40.749Z,12.87
2018-07-21T05:46:10.906Z,19.63
2018-07-21T05:48:41.513Z,15.10
2018-07-21T05:51:12.009Z,14.67
2018-07-21T05:53:42.438Z,13.50
2018-07-21T05:56:12.871Z,16.60
2018-07-21T05:58:43.207Z,17.20
2018-07-21T06:01:14.485Z,17.70
2018-07-21T06:03:44.947Z,11.43
2018-07-21T06:06:15.238Z,12.63
2018-07-21T06:08:45.829Z,10.43
2018-07-21T06:11:16.223Z,12.83
2018-07-21T06:13:46.744Z,11.30
2018-07-21T06:16:17.329Z,13.67
2018-07-21T06:18:48.639Z,10.47
2018-07-21T06:21:18.972Z,12.37
2018-07-21T06:23:49.476Z,11.27
2018-07-21T06:26:19.857Z,10.80
2018-07-21T06:28:50.564Z,11.03
2018-07-21T06:31:20.979Z,12.13
2018-07-21T06:33:51.539Z,13.87
2018-07-21T06:36:22.107Z,12.53
2018-07-21T06:38:52.625Z,11.47
2018-07-21T06:41:22.980Z,16.87
2018-07-21T06:43:53.526Z,15.83
2018-07-21T06:46:23.916Z,13.80
2018-07-21T06:48:55.763Z,12.57
2018-07-21T06:51:26.178Z,17.53
2018-07-21T06:53:56.586Z,11.63
2018-07-21T06:56:27.715Z,13.67
2018-07-21T06:58:58.280Z,11.57
2018-07-21T07:01:28.978Z,13.20
2018-07-21T07:03:59.482Z,12.93
2018-07-21T07:06:30.024Z,9.30
2018-07-21T07:09:00.236Z,11.67
2018-07-21T07:11:30.736Z,14.03
2018-07-21T07:14:01.318Z,13.87
2018-07-21T07:16:31.810Z,13.10
2018-07-21T07:19:02.228Z,14.97
2018-07-21T07:21:32.807Z,8.97
2018-07-21T07:24:03.125Z,13.50
2018-07-21T07:26:33.745Z,11.23
2018-07-21T07:29:04.006Z,10.57
2018-07-21T07:31:34.411Z,11.30
2018-07-21T07:34:04.815Z,12.67
2018-07-21T07:36:35.251Z,13.17
2018-07-21T07:39:07.138Z,11.60
2018-07-21T07:41:38.024Z,21.60
2018-07-21T07:44:08.514Z,10.50
2018-07-21T07:46:39.777Z,8.47
2018-07-21T07:49:10.155Z,10.30
2018-07-21T07:51:40.411Z,13.00
2018-07-21T07:54:10.802Z,12.33
2018-07-21T07:56:41.252Z,13.13
2018-07-21T07:59:11.665Z,11.00
2018-07-21T08:01:41.992Z,8.80
2018-07-21T08:04:12.255Z,8.50
2018-07-21T08:06:42.717Z,8.10
2018-07-21T08:09:13.531Z,9.23
2018-07-21T08:11:44.373Z,9.20
2018-07-21T08:14:14.742Z,8.77
2018-07-21T08:16:46.028Z,17.53
2018-07-21T08:19:16.403Z,9.03
2018-07-21T08:21:47.679Z,10.33
2018-07-21T08:24:18.024Z,7.20
2018-07-21T08:26:48.426Z,9.53
2018-07-21T08:29:18.897Z,10.27
2018-07-21T08:31:49.523Z,9.97
2018-07-21T08:34:19.969Z,9.70
2018-07-21T08:36:50.455Z,7.27
2018-07-21T08:39:21.042Z,8.37
2018-07-21T08:41:51.388Z,14.40
2018-07-21T08:44:22.093Z,9.83
2018-07-21T08:46:52.439Z,10.93
2018-07-21T08:49:23.007Z,8.60
2018-07-21T08:51:53.402Z,9.13
2018-07-21T08:54:23.883Z,8.57
2018-07-21T08:56:54.363Z,9.20
2018-07-21T08:59:24.627Z,12.10
2018-07-21T09:01:55.139Z,12.37
2018-07-21T09:04:25.545Z,8.47
2018-07-21T09:06:56.057Z,9.30
2018-07-21T09:09:26.673Z,9.83
2018-07-21T09:11:57.880Z,12.87
2018-07-21T09:14:28.320Z,8.50
2018-07-21T09:16:58.628Z,16.50
2018-07-21T09:19:29.108Z,10.57
2018-07-21T09:21:59.504Z,8.23
2018-07-21T09:24:30.388Z,8.63
2018-07-21T09:27:00.856Z,10.67
2018-07-21T09:29:31.360Z,14.03
2018-07-21T09:32:01.923Z,10.57
2018-07-21T09:34:32.155Z,7.47
2018-07-21T09:37:02.641Z,11.77
2018-07-21T09:39:32.913Z,10.43
2018-07-21T09:42:03.365Z,10.57
2018-07-21T09:44:33.671Z,11.73
2018-07-21T09:47:04.382Z,10.67
2018-07-21T09:49:35.582Z,8.00
2018-07-21T09:52:06.736Z,10.63
2018-07-21T09:54:37.186Z,11.27
2018-07-21T09:57:07.816Z,9.77
2018-07-21T09:59:38.119Z,12.87
2018-07-21T10:02:08.560Z,7.63
2018-07-21T10:04:38.916Z,7.23
2018-07-21T10:07:09.341Z,9.70
2018-07-21T10:09:39.679Z,8.10
2018-07-21T10:12:10.341Z,8.10
2018-07-21T10:14:41.111Z,8.40
2018-07-21T10:17:11.609Z,14.07
2018-07-21T10:19:42.003Z,10.40
2018-07-21T10:22:12.224Z,10.00
2018-07-21T10:24:47.815Z,7.47
2018-07-21T10:27:18.167Z,9.50
2018-07-21T10:29:48.470Z,7.73
2018-07-21T10:32:18.938Z,7.60
2018-07-21T10:34:49.250Z,11.97
2018-07-21T10:37:19.938Z,11.13
2018-07-21T10:39:50.139Z,6.93
2018-07-21T10:42:21.052Z,29.93
2018-07-21T10:44:51.327Z,7.93
2018-07-21T10:47:21.697Z,16.17
2018-07-21T10:49:51.932Z,7.53
2018-07-21T10:52:22.163Z,8.00
2018-07-21T10:54:52.593Z,8.63
2018-07-21T10:57:23.079Z,7.97
2018-07-21T10:59:53.420Z,6.97
2018-07-21T11:02:23.709Z,5.63
2018-07-21T11:04:53.938Z,6.57
2018-07-21T11:07:24.287Z,7.43
2018-07-21T11:09:54.526Z,9.10
2018-07-21T11:12:24.979Z,8.17
2018-07-21T11:14:55.406Z,7.73
2018-07-21T11:17:25.910Z,9.90
2018-07-21T11:19:56.825Z,9.40
2018-07-21T11:22:27.310Z,7.97
2018-07-21T11:24:57.660Z,8.90
2018-07-21T11:27:27.989Z,6.73
2018-07-21T11:29:58.569Z,10.00
2018-07-21T11:32:28.887Z,9.97
2018-07-21T11:34:59.248Z,16.20
2018-07-21T11:37:29.656Z,8.13
2018-07-21T11:40:00.215Z,6.17
2018-07-21T11:42:31.279Z,7.97
2018-07-21T11:45:01.592Z,9.27
2018-07-21T11:47:31.965Z,10.77
2018-07-21T11:50:02.422Z,15.00
2018-07-21T11:52:33.935Z,8.20
2018-07-21T11:55:04.376Z,7.93
2018-07-21T11:57:34.786Z,8.30
2018-07-21T12:00:05.552Z,9.67
2018-07-21T12:02:36.048Z,8.90
2018-07-21T12:05:07.229Z,15.93
2018-07-21T12:07:37.624Z,7.33
2018-07-21T12:10:08.162Z,14.07
2018-07-21T12:12:38.582Z,11.17
2018-07-21T12:15:09.238Z,10.80
2018-07-21T12:17:41.603Z,11.17
2018-07-21T12:20:11.893Z,13.97
2018-07-21T12:22:42.206Z,8.27
2018-07-21T12:25:12.445Z,9.47
2018-07-21T12:27:42.999Z,12.43
2018-07-21T12:30:13.330Z,7.10
2018-07-21T12:32:44.650Z,11.93
2018-07-21T12:35:14.810Z,7.57
2018-07-21T12:37:45.109Z,6.40
2018-07-21T12:40:15.773Z,8.93
2018-07-21T12:42:46.270Z,9.13
2018-07-21T12:45:16.633Z,10.10
2018-07-21T12:47:46.884Z,19.30
2018-07-21T12:50:18.199Z,8.00
2018-07-21T12:52:48.547Z,7.83
2018-07-21T12:55:18.789Z,9.17
2018-07-21T12:57:49.117Z,10.97
2018-07-21T13:00:19.435Z,7.93
2018-07-21T13:02:49.856Z,10.07
2018-07-21T13:05:20.491Z,12.23
2018-07-21T13:07:50.594Z,6.97
2018-07-21T13:10:20.816Z,10.07
2018-07-21T13:12:51.166Z,10.37
2018-07-21T13:15:21.547Z,15.10
2018-07-21T13:17:51.819Z,9.63
2018-07-21T13:20:22.392Z,13.20
2018-07-21T13:22:52.661Z,13.10
2018-07-21T13:25:23.243Z,9.10
2018-07-21T13:27:53.792Z,6.37
2018-07-21T13:30:24.111Z,8.27
2018-07-21T13:32:54.458Z,17.77
2018-07-21T13:35:24.800Z,10.07
2018-07-21T13:37:55.189Z,6.83
2018-07-21T13:40:25.415Z,9.60
2018-07-21T13:42:55.765Z,10.77
2018-07-21T13:45:26.276Z,8.40
2018-07-21T13:47:56.667Z,9.40
2018-07-21T13:50:27.214Z,7.83
2018-07-21T13:52:57.617Z,8.63
2018-07-21T13:55:28.184Z,7.40
2018-07-21T13:58:29.379Z,8.40
2018-07-21T14:00:59.687Z,10.00
2018-07-21T14:03:30.175Z,8.43
2018-07-21T14:06:00.485Z,7.43
2018-07-21T14:08:30.823Z,8.30
2018-07-21T14:11:01.434Z,7.50
2018-07-21T14:13:31.674Z,6.87
2018-07-21T14:16:02.126Z,6.83
2018-07-21T14:18:32.463Z,11.90
2018-07-21T14:21:02.726Z,7.30
2018-07-21T14:23:34.145Z,6.60
2018-07-21T14:26:04.411Z,10.33
2018-07-21T14:28:34.732Z,13.57
2018-07-21T14:31:05.366Z,10.33
2018-07-21T14:33:35.945Z,8.60
2018-07-21T14:36:06.448Z,8.67
2018-07-21T14:38:36.721Z,11.07
2018-07-21T14:41:07.312Z,8.43
2018-07-21T14:43:37.857Z,6.90
2018-07-21T14:46:08.162Z,7.87
2018-07-21T14:48:38.889Z,8.07
2018-07-21T14:51:09.243Z,8.47
2018-07-21T14:53:39.599Z,6.80
2018-07-21T14:56:10.080Z,7.13
2018-07-21T14:58:40.363Z,6.33
2018-07-21T15:01:10.755Z,6.40
2018-07-21T15:03:41.048Z,8.43
2018-07-21T15:06:11.366Z,7.13
2018-07-21T15:08:41.650Z,8.67
2018-07-21T15:11:12.221Z,7.73
2018-07-21T15:13:42.602Z,6.03
2018-07-21T15:16:13.002Z,6.37
2018-07-21T15:18:43.250Z,8.63
2018-07-21T15:21:13.477Z,8.43
2018-07-21T15:23:43.784Z,5.83
2018-07-21T15:26:14.206Z,5.33
2018-07-21T15:28:44.608Z,9.90
2018-07-21T15:31:15.199Z,6.23
2018-07-21T15:33:45.842Z,5.27
2018-07-21T15:36:16.430Z,5.77
2018-07-21T15:38:47.073Z,8.30
2018-07-21T15:41:17.433Z,10.10
2018-07-21T15:43:47.720Z,6.57
2018-07-21T15:46:19.064Z,6.47
2018-07-21T15:48:49.580Z,6.53
2018-07-21T15:51:20.048Z,5.67
2018-07-21T15:53:50.572Z,7.23
2018-07-21T15:56:21.212Z,6.07
2018-07-21T15:58:51.507Z,6.30
2018-07-21T16:01:22.131Z,6.17
2018-07-21T16:03:52.485Z,7.43
2018-07-21T16:06:22.950Z,7.27
2018-07-21T16:08:53.291Z,5.47
2018-07-21T16:11:25.090Z,8.63
2018-07-21T16:13:56.041Z,5.77
2018-07-21T16:16:26.413Z,9.77
2018-07-21T16:18:57.950Z,7.33
2018-07-21T16:21:29.300Z,9.23
2018-07-21T16:24:00.381Z,6.93
2018-07-21T16:26:30.815Z,5.30
2018-07-21T16:29:01.129Z,7.40
2018-07-21T16:31:31.571Z,6.17
2018-07-21T16:34:02.159Z,5.37
2018-07-21T16:36:32.586Z,7.57
2018-07-21T16:39:02.886Z,5.47
2018-07-21T16:41:33.368Z,5.87
2018-07-21T16:44:03.774Z,9.93
2018-07-21T16:46:34.124Z,8.57
2018-07-21T16:49:04.522Z,7.83
2018-07-21T16:51:35.151Z,5.87
2018-07-21T16:54:05.497Z,5.50
2018-07-21T16:56:35.789Z,5.93
2018-07-21T16:59:06.247Z,6.70
2018-07-21T17:01:37.039Z,6.47
2018-07-21T17:04:08.160Z,6.47
2018-07-21T17:06:38.543Z,6.63
2018-07-21T17:09:10.563Z,5.63
2018-07-21T17:11:41.002Z,8.00
2018-07-21T17:14:11.610Z,5.73
2018-07-21T17:16:41.995Z,9.20
2018-07-21T17:19:12.539Z,6.67
2018-07-21T17:21:43.021Z,6.93
2018-07-21T17:24:13.825Z,7.03
2018-07-21T17:26:44.120Z,9.27
2018-07-21T17:29:14.386Z,6.80
2018-07-21T17:31:44.699Z,7.63
2018-07-21T17:34:15.186Z,10.90
2018-07-21T17:36:45.585Z,8.80
2018-07-21T17:39:16.029Z,10.47
2018-07-21T17:41:46.318Z,7.80
2018-07-21T17:44:16.726Z,12.30
2018-07-21T17:46:47.062Z,9.63
2018-07-21T17:49:17.635Z,10.53
2018-07-21T17:51:48.050Z,11.67
2018-07-21T17:54:18.393Z,10.83
2018-07-21T17:56:48.666Z,11.67
2018-07-21T17:59:19.251Z,11.67
2018-07-21T18:01:49.530Z,12.00
2018-07-21T18:04:20.678Z,15.63
2018-07-21T18:06:50.967Z,10.20
2018-07-21T18:09:21.353Z,14.70
2018-07-21T18:11:51.778Z,11.47
2018-07-21T18:14:22.204Z,22.47
2018-07-21T18:16:52.433Z,10.97
2018-07-21T18:19:22.709Z,15.03
2018-07-21T18:21:53.210Z,10.20
2018-07-21T18:24:26.524Z,7.37
2018-07-21T18:26:56.881Z,10.67
2018-07-21T18:29:27.269Z,9.20
2018-07-21T18:31:57.703Z,6.70
2018-07-21T18:34:28.283Z,6.40
2018-07-21T18:36:58.807Z,11.97
2018-07-21T18:39:29.182Z,7.70
2018-07-21T18:41:59.558Z,6.33
2018-07-21T18:44:30.102Z,7.30
2018-07-21T18:47:01.182Z,8.87
2018-07-21T18:49:31.443Z,9.00
2018-07-21T18:52:01.799Z,7.77
2018-07-21T18:54:32.182Z,9.93
2018-07-21T18:57:02.780Z,14.10
2018-07-21T18:59:33.205Z,16.17
2018-07-21T19:02:03.612Z,13.07
2018-07-21T19:04:34.336Z,17.00
2018-07-21T19:07:07.028Z,14.67
2018-07-21T19:09:37.464Z,15.07
2018-07-21T19:12:12.797Z,14.90
2018-07-21T19:14:43.356Z,13.30
2018-07-21T19:17:13.590Z,17.53
2018-07-21T19:19:49.131Z,14.97
2018-07-21T19:22:19.584Z,12.93
2018-07-21T19:24:50.163Z,14.07
2018-07-21T19:27:25.565Z,16.80
2018-07-21T19:29:55.830Z,22.60
2018-07-21T19:32:31.156Z,18.43
2018-07-21T19:35:01.499Z,23.40
2018-07-21T19:37:37.078Z,23.33
2018-07-21T19:40:07.641Z,21.17
2018-07-21T19:42:37.882Z,20.97
2018-07-21T19:45:08.348Z,18.67
2018-07-21T19:47:38.761Z,26.60
2018-07-21T19:50:09.366Z,31.57
2018-07-21T19:52:40.427Z,22.70
2018-07-21T19:55:11.103Z,21.07
2018-07-21T19:57:41.447Z,18.03
2018-07-21T20:00:12.727Z,15.43
2018-07-21T20:02:42.940Z,24.73
2018-07-21T20:05:13.310Z,19.07
2018-07-21T20:07:43.611Z,20.87
2018-07-21T20:10:13.949Z,14.77
2018-07-21T20:12:44.317Z,21.70
2018-07-21T20:15:14.651Z,24.80
2018-07-21T20:17:45.030Z,16.07
2018-07-21T20:20:15.366Z,20.63
2018-07-21T20:22:45.667Z,15.97
2018-07-21T20:25:15.942Z,19.80
2018-07-21T20:27:46.285Z,18.10
2018-07-21T20:30:17.099Z,17.27
2018-07-21T20:32:47.630Z,13.70
2018-07-21T20:35:18.159Z,14.87
2018-07-21T20:37:48.632Z,20.00
2018-07-21T20:40:19.006Z,22.73
2018-07-21T20:42:49.645Z,15.70
2018-07-21T20:45:20.219Z,17.40
2018-07-21T20:47:50.593Z,14.07
2018-07-21T20:50:21.221Z,14.83
2018-07-21T20:52:51.528Z,18.30
2018-07-21T20:55:23.164Z,14.90
2018-07-21T20:57:53.395Z,12.57
2018-07-21T21:00:24.185Z,12.67
2018-07-21T21:02:54.489Z,13.07
2018-07-21T21:05:24.943Z,13.50
2018-07-21T21:07:56.271Z,11.47
2018-07-21T21:10:26.631Z,12.93
2018-07-21T21:12:57.681Z,15.30
2018-07-21T21:15:27.957Z,10.70
2018-07-21T21:17:58.373Z,18.43
2018-07-21T21:20:28.715Z,14.67
2018-07-21T21:22:59.198Z,17.97
2018-07-21T21:25:29.335Z,13.13
2018-07-21T21:27:59.732Z,14.03
2018-07-21T21:30:30.096Z,18.07
2018-07-21T21:33:00.666Z,14.33
2018-07-21T21:35:31.056Z,17.07
2018-07-21T21:38:01.362Z,14.57
2018-07-21T21:40:31.870Z,15.10
2018-07-21T21:43:02.127Z,17.57
2018-07-21T21:45:32.612Z,17.23
2018-07-21T21:48:03.152Z,15.33
2018-07-21T21:50:33.637Z,14.07
2018-07-21T21:53:04.104Z,17.40
2018-07-21T21:55:34.657Z,16.23
2018-07-21T21:58:05.232Z,14.83
2018-07-21T22:00:57.317Z,16.60
2018-07-21T22:03:28.420Z,15.83
2018-07-21T22:05:59.323Z,11.23
2018-07-21T22:08:30.290Z,14.53
2018-07-21T22:11:00.609Z,13.23
2018-07-21T22:13:31.091Z,14.33
2018-07-21T22:16:01.910Z,13.57
2018-07-21T22:18:32.781Z,13.57
2018-07-21T22:21:03.082Z,14.87
2018-07-21T22:23:34.151Z,15.73
2018-07-21T22:26:04.461Z,16.03
2018-07-21T22:28:34.802Z,12.00
2018-07-21T22:31:05.098Z,16.03
2018-07-21T22:33:35.539Z,13.77
2018-07-21T22:36:06.044Z,15.90
2018-07-21T22:38:36.427Z,13.43
2018-07-21T22:41:07.001Z,15.53
2018-07-21T22:43:37.312Z,16.17
2018-07-21T22:46:07.687Z,15.93
2018-07-21T22:48:38.246Z,16.60
2018-07-21T22:51:08.516Z,13.33
2018-07-21T22:53:39.164Z,15.07
2018-07-21T22:56:10.127Z,17.90
2018-07-21T22:58:40.470Z,14.33
2018-07-21T23:01:10.738Z,17.47
2018-07-21T23:03:41.052Z,18.07
2018-07-21T23:06:11.379Z,12.13
2018-07-21T23:08:42.248Z,15.37
2018-07-21T23:11:12.621Z,13.13
2018-07-21T23:13:43.083Z,15.83
2018-07-21T23:16:13.511Z,12.33
2018-07-21T23:18:43.754Z,12.20
2018-07-21T23:21:14.026Z,11.47
2018-07-21T23:23:44.602Z,16.13
2018-07-21T23:26:14.906Z,13.50
2018-07-21T23:28:45.235Z,19.37
2018-07-21T23:31:15.735Z,19.27
2018-07-21T23:33:46.303Z,14.27
2018-07-21T23:36:17.552Z,16.23
2018-07-21T23:38:47.929Z,19.33
2018-07-21T23:41:18.166Z,16.77
2018-07-21T23:43:48.674Z,15.47
2018-07-21T23:46:19.175Z,20.83
2018-07-21T23:48:50.547Z,21.83
2018-07-21T23:51:20.983Z,17.43
2018-07-21T23:53:51.401Z,19.83
2018-07-21T23:56:22.008Z,21.63
2018-07-21T23:58:52.259Z,21.57
